sensor_id;sensor_type;location;lat;lon;timestamp;P1;durP1;ratioP1;P2;durP2;ratioP2
23812;SDS011;12087;45.190;5.688;2023-04-15T00:00:09;4.28;;;3.28;;
23812;SDS011;12087;45.190;5.688;2023-04-15T00:05:31;3.92;;;3.20;;
23812;SDS011;12087;45.190;5.688;2023-04-15T00:10:54;3.78;;;3.33;;
23812;SDS011;12087;45.190;5.688;2023-04-15T00:16:20;9.30;;;3.47;;
23812;SDS011;12087;45.190;5.688;2023-04-15T00:21:43;4.60;;;2.97;;
23812;SDS011;12087;45.190;5.688;2023-04-15T00:27:05;5.95;;;3.13;;
23812;SDS011;12087;45.190;5.688;2023-04-15T00:32:29;5.07;;;2.50;;
23812;SDS011;12087;45.190;5.688;2023-04-15T00:37:51;2.92;;;2.20;;
23812;SDS011;12087;45.190;5.688;2023-04-15T00:43:13;6.93;;;3.28;;
23812;SDS011;12087;45.190;5.688;2023-04-15T00:48:37;4.38;;;2.63;;
23812;SDS011;12087;45.190;5.688;2023-04-15T00:53:59;3.92;;;2.85;;
23812;SDS011;12087;45.190;5.688;2023-04-15T00:59:22;4.45;;;3.03;;
23812;SDS011;12087;45.190;5.688;2023-04-15T01:04:46;4.10;;;3.53;;
23812;SDS011;12087;45.190;5.688;2023-04-15T01:10:09;4.47;;;3.78;;
23812;SDS011;12087;45.190;5.688;2023-04-15T01:15:32;5.55;;;4.03;;
23812;SDS011;12087;45.190;5.688;2023-04-15T01:20:57;5.43;;;3.75;;
23812;SDS011;12087;45.190;5.688;2023-04-15T01:26:24;4.75;;;3.60;;
23812;SDS011;12087;45.190;5.688;2023-04-15T01:31:49;4.63;;;3.90;;
23812;SDS011;12087;45.190;5.688;2023-04-15T01:37:13;4.75;;;3.13;;
23812;SDS011;12087;45.190;5.688;2023-04-15T01:42:36;4.53;;;3.67;;
23812;SDS011;12087;45.190;5.688;2023-04-15T01:47:59;7.05;;;3.65;;
23812;SDS011;12087;45.190;5.688;2023-04-15T01:53:21;5.35;;;3.20;;
23812;SDS011;12087;45.190;5.688;2023-04-15T01:58:45;4.55;;;3.20;;
23812;SDS011;12087;45.190;5.688;2023-04-15T02:04:07;5.57;;;3.35;;
23812;SDS011;12087;45.190;5.688;2023-04-15T02:09:35;5.95;;;3.30;;
23812;SDS011;12087;45.190;5.688;2023-04-15T02:14:59;6.25;;;3.80;;
23812;SDS011;12087;45.190;5.688;2023-04-15T02:20:21;4.60;;;3.13;;
23812;SDS011;12087;45.190;5.688;2023-04-15T02:25:43;5.10;;;3.63;;
23812;SDS011;12087;45.190;5.688;2023-04-15T02:31:08;3.40;;;3.03;;
23812;SDS011;12087;45.190;5.688;2023-04-15T02:36:30;2.90;;;1.80;;
23812;SDS011;12087;45.190;5.688;2023-04-15T02:41:53;5.70;;;2.00;;
23812;SDS011;12087;45.190;5.688;2023-04-15T02:47:19;1.52;;;1.25;;
23812;SDS011;12087;45.190;5.688;2023-04-15T02:52:42;1.10;;;1.00;;
23812;SDS011;12087;45.190;5.688;2023-04-15T02:58:05;1.50;;;1.10;;
23812;SDS011;12087;45.190;5.688;2023-04-15T03:03:28;3.00;;;1.00;;
23812;SDS011;12087;45.190;5.688;2023-04-15T03:08:51;2.85;;;1.45;;
23812;SDS011;12087;45.190;5.688;2023-04-15T03:14:13;2.13;;;1.20;;
23812;SDS011;12087;45.190;5.688;2023-04-15T03:19:36;2.85;;;1.15;;
23812;SDS011;12087;45.190;5.688;2023-04-15T03:24:58;1.13;;;1.00;;
23812;SDS011;12087;45.190;5.688;2023-04-15T03:30:21;1.33;;;1.20;;
23812;SDS011;12087;45.190;5.688;2023-04-15T03:35:44;1.52;;;1.30;;
23812;SDS011;12087;45.190;5.688;2023-04-15T03:41:07;1.98;;;1.40;;
23812;SDS011;12087;45.190;5.688;2023-04-15T03:46:29;2.78;;;1.65;;
23812;SDS011;12087;45.190;5.688;2023-04-15T03:51:53;2.92;;;2.25;;
23812;SDS011;12087;45.190;5.688;2023-04-15T03:57:15;2.33;;;1.77;;
23812;SDS011;12087;45.190;5.688;2023-04-15T04:02:37;1.80;;;1.70;;
23812;SDS011;12087;45.190;5.688;2023-04-15T04:08:01;2.50;;;1.90;;
23812;SDS011;12087;45.190;5.688;2023-04-15T04:13:23;2.00;;;1.80;;
23812;SDS011;12087;45.190;5.688;2023-04-15T04:18:45;3.00;;;1.73;;
23812;SDS011;12087;45.190;5.688;2023-04-15T04:24:09;2.83;;;2.10;;
23812;SDS011;12087;45.190;5.688;2023-04-15T04:29:32;3.80;;;2.30;;
23812;SDS011;12087;45.190;5.688;2023-04-15T04:34:54;4.18;;;2.70;;
23812;SDS011;12087;45.190;5.688;2023-04-15T04:40:18;2.55;;;2.30;;
23812;SDS011;12087;45.190;5.688;2023-04-15T04:45:40;3.15;;;2.83;;
23812;SDS011;12087;45.190;5.688;2023-04-15T04:51:02;3.60;;;2.25;;
23812;SDS011;12087;45.190;5.688;2023-04-15T04:56:26;3.85;;;2.65;;
23812;SDS011;12087;45.190;5.688;2023-04-15T05:01:48;5.75;;;2.13;;
23812;SDS011;12087;45.190;5.688;2023-04-15T05:07:11;2.25;;;1.60;;
23812;SDS011;12087;45.190;5.688;2023-04-15T05:12:34;3.55;;;1.48;;
23812;SDS011;12087;45.190;5.688;2023-04-15T05:17:57;3.42;;;1.83;;
23812;SDS011;12087;45.190;5.688;2023-04-15T05:23:19;3.53;;;1.70;;
23812;SDS011;12087;45.190;5.688;2023-04-15T05:28:43;4.70;;;1.98;;
23812;SDS011;12087;45.190;5.688;2023-04-15T05:34:07;4.30;;;1.95;;
23812;SDS011;12087;45.190;5.688;2023-04-15T05:39:29;2.38;;;1.60;;
23812;SDS011;12087;45.190;5.688;2023-04-15T05:44:53;3.50;;;1.50;;
23812;SDS011;12087;45.190;5.688;2023-04-15T05:50:15;2.60;;;1.63;;
23812;SDS011;12087;45.190;5.688;2023-04-15T05:55:38;2.45;;;1.77;;
23812;SDS011;12087;45.190;5.688;2023-04-15T06:01:01;5.07;;;2.03;;
23812;SDS011;12087;45.190;5.688;2023-04-15T06:06:24;7.13;;;2.38;;
23812;SDS011;12087;45.190;5.688;2023-04-15T06:11:46;4.15;;;2.60;;
23812;SDS011;12087;45.190;5.688;2023-04-15T06:17:10;2.92;;;1.90;;
23812;SDS011;12087;45.190;5.688;2023-04-15T06:22:35;2.40;;;2.20;;
23812;SDS011;12087;45.190;5.688;2023-04-15T06:27:58;5.65;;;2.30;;
23812;SDS011;12087;45.190;5.688;2023-04-15T06:33:21;3.90;;;2.30;;
23812;SDS011;12087;45.190;5.688;2023-04-15T06:38:44;2.78;;;2.15;;
23812;SDS011;12087;45.190;5.688;2023-04-15T06:44:06;3.00;;;1.88;;
23812;SDS011;12087;45.190;5.688;2023-04-15T06:49:29;3.47;;;2.72;;
23812;SDS011;12087;45.190;5.688;2023-04-15T06:54:52;2.17;;;1.98;;
23812;SDS011;12087;45.190;5.688;2023-04-15T07:00:16;4.13;;;2.00;;
23812;SDS011;12087;45.190;5.688;2023-04-15T07:05:40;2.08;;;1.77;;
23812;SDS011;12087;45.190;5.688;2023-04-15T07:11:03;2.45;;;2.25;;
23812;SDS011;12087;45.190;5.688;2023-04-15T07:16:25;3.35;;;2.80;;
23812;SDS011;12087;45.190;5.688;2023-04-15T07:21:48;4.60;;;3.60;;
23812;SDS011;12087;45.190;5.688;2023-04-15T07:27:11;3.80;;;3.35;;
23812;SDS011;12087;45.190;5.688;2023-04-15T07:32:33;7.85;;;7.05;;
23812;SDS011;12087;45.190;5.688;2023-04-15T07:37:57;6.53;;;5.30;;
23812;SDS011;12087;45.190;5.688;2023-04-15T07:43:19;3.42;;;2.60;;
23812;SDS011;12087;45.190;5.688;2023-04-15T07:48:41;2.85;;;2.42;;
23812;SDS011;12087;45.190;5.688;2023-04-15T07:54:05;2.30;;;2.10;;
23812;SDS011;12087;45.190;5.688;2023-04-15T07:59:28;1.38;;;1.27;;
23812;SDS011;12087;45.190;5.688;2023-04-15T08:04:52;1.42;;;0.80;;
23812;SDS011;12087;45.190;5.688;2023-04-15T08:10:16;1.92;;;0.70;;
23812;SDS011;12087;45.190;5.688;2023-04-15T08:15:38;1.95;;;0.70;;
23812;SDS011;12087;45.190;5.688;2023-04-15T08:21:01;2.00;;;1.30;;
23812;SDS011;12087;45.190;5.688;2023-04-15T08:26:25;6.60;;;1.70;;
23812;SDS011;12087;45.190;5.688;2023-04-15T08:31:47;2.55;;;1.40;;
23812;SDS011;12087;45.190;5.688;2023-04-15T08:37:09;2.15;;;1.00;;
23812;SDS011;12087;45.190;5.688;2023-04-15T08:42:35;4.47;;;1.20;;
23812;SDS011;12087;45.190;5.688;2023-04-15T08:48:01;1.80;;;1.33;;
23812;SDS011;12087;45.190;5.688;2023-04-15T08:53:27;5.13;;;1.23;;
23812;SDS011;12087;45.190;5.688;2023-04-15T08:58:52;3.58;;;1.00;;
23812;SDS011;12087;45.190;5.688;2023-04-15T09:04:14;0.80;;;0.80;;
23812;SDS011;12087;45.190;5.688;2023-04-15T09:09:37;3.38;;;1.00;;
23812;SDS011;12087;45.190;5.688;2023-04-15T09:15:02;1.63;;;0.90;;
23812;SDS011;12087;45.190;5.688;2023-04-15T09:20:25;1.63;;;0.82;;
23812;SDS011;12087;45.190;5.688;2023-04-15T09:25:48;2.33;;;0.95;;
23812;SDS011;12087;45.190;5.688;2023-04-15T09:31:12;3.00;;;1.30;;
23812;SDS011;12087;45.190;5.688;2023-04-15T09:36:40;3.88;;;1.20;;
23812;SDS011;12087;45.190;5.688;2023-04-15T09:42:13;2.13;;;1.00;;
23812;SDS011;12087;45.190;5.688;2023-04-15T09:47:38;2.63;;;0.85;;
23812;SDS011;12087;45.190;5.688;2023-04-15T09:53:02;1.58;;;0.90;;
23812;SDS011;12087;45.190;5.688;2023-04-15T09:58:25;1.33;;;0.68;;
23812;SDS011;12087;45.190;5.688;2023-04-15T10:03:49;0.40;;;0.40;;
23812;SDS011;12087;45.190;5.688;2023-04-15T10:09:12;2.83;;;0.82;;
23812;SDS011;12087;45.190;5.688;2023-04-15T10:14:34;0.82;;;0.68;;
23812;SDS011;12087;45.190;5.688;2023-04-15T10:20:01;1.63;;;1.10;;
23812;SDS011;12087;45.190;5.688;2023-04-15T10:25:24;1.45;;;1.05;;
23812;SDS011;12087;45.190;5.688;2023-04-15T10:30:48;1.48;;;1.15;;
23812;SDS011;12087;45.190;5.688;2023-04-15T10:36:13;1.33;;;0.73;;
23812;SDS011;12087;45.190;5.688;2023-04-15T10:41:36;3.58;;;1.00;;
23812;SDS011;12087;45.190;5.688;2023-04-15T10:46:58;3.10;;;1.05;;
23812;SDS011;12087;45.190;5.688;2023-04-15T10:52:23;1.85;;;0.70;;
23812;SDS011;12087;45.190;5.688;2023-04-15T10:57:48;2.95;;;0.95;;
23812;SDS011;12087;45.190;5.688;2023-04-15T11:03:13;0.98;;;0.80;;
23812;SDS011;12087;45.190;5.688;2023-04-15T11:14:28;2.50;;;1.30;;
23812;SDS011;12087;45.190;5.688;2023-04-15T11:19:53;2.17;;;0.85;;
23812;SDS011;12087;45.190;5.688;2023-04-15T11:25:23;1.40;;;0.82;;
23812;SDS011;12087;45.190;5.688;2023-04-15T11:30:46;1.20;;;0.60;;
23812;SDS011;12087;45.190;5.688;2023-04-15T11:36:08;2.92;;;1.27;;
23812;SDS011;12087;45.190;5.688;2023-04-15T11:41:34;7.75;;;5.25;;
23812;SDS011;12087;45.190;5.688;2023-04-15T11:46:56;3.45;;;1.30;;
23812;SDS011;12087;45.190;5.688;2023-04-15T11:52:19;0.40;;;0.40;;
23812;SDS011;12087;45.190;5.688;2023-04-15T11:57:42;1.02;;;0.50;;
23812;SDS011;12087;45.190;5.688;2023-04-15T12:03:11;0.30;;;0.30;;
23812;SDS011;12087;45.190;5.688;2023-04-15T12:14:25;1.73;;;0.70;;
23812;SDS011;12087;45.190;5.688;2023-04-15T12:19:54;1.00;;;0.70;;
23812;SDS011;12087;45.190;5.688;2023-04-15T12:25:17;2.28;;;1.40;;
23812;SDS011;12087;45.190;5.688;2023-04-15T12:30:49;0.80;;;0.80;;
23812;SDS011;12087;45.190;5.688;2023-04-15T12:36:11;0.80;;;0.73;;
23812;SDS011;12087;45.190;5.688;2023-04-15T12:41:33;1.65;;;0.98;;
23812;SDS011;12087;45.190;5.688;2023-04-15T12:46:57;0.90;;;0.80;;
23812;SDS011;12087;45.190;5.688;2023-04-15T12:52:20;2.70;;;0.90;;
23812;SDS011;12087;45.190;5.688;2023-04-15T12:57:43;0.88;;;0.85;;
23812;SDS011;12087;45.190;5.688;2023-04-15T13:03:07;4.28;;;0.70;;
23812;SDS011;12087;45.190;5.688;2023-04-15T13:08:29;2.15;;;0.60;;
23812;SDS011;12087;45.190;5.688;2023-04-15T13:13:51;1.27;;;0.80;;
23812;SDS011;12087;45.190;5.688;2023-04-15T13:19:15;4.10;;;1.02;;
23812;SDS011;12087;45.190;5.688;2023-04-15T13:24:37;1.20;;;1.00;;
23812;SDS011;12087;45.190;5.688;2023-04-15T13:30:00;1.15;;;0.90;;
23812;SDS011;12087;45.190;5.688;2023-04-15T13:35:23;1.20;;;0.60;;
23812;SDS011;12087;45.190;5.688;2023-04-15T13:40:46;1.30;;;1.00;;
23812;SDS011;12087;45.190;5.688;2023-04-15T13:46:08;3.25;;;1.10;;
23812;SDS011;12087;45.190;5.688;2023-04-15T13:51:31;0.80;;;0.70;;
23812;SDS011;12087;45.190;5.688;2023-04-15T13:56:55;0.82;;;0.60;;
23812;SDS011;12087;45.190;5.688;2023-04-15T14:02:19;0.50;;;0.50;;
23812;SDS011;12087;45.190;5.688;2023-04-15T14:07:44;4.90;;;0.90;;
23812;SDS011;12087;45.190;5.688;2023-04-15T14:13:07;2.08;;;1.10;;
23812;SDS011;12087;45.190;5.688;2023-04-15T14:18:29;1.50;;;0.88;;
23812;SDS011;12087;45.190;5.688;2023-04-15T14:23:52;2.63;;;1.10;;
23812;SDS011;12087;45.190;5.688;2023-04-15T14:29:15;2.72;;;1.08;;
23812;SDS011;12087;45.190;5.688;2023-04-15T14:34:37;2.50;;;1.42;;
23812;SDS011;12087;45.190;5.688;2023-04-15T14:40:00;1.52;;;1.00;;
23812;SDS011;12087;45.190;5.688;2023-04-15T14:45:23;2.40;;;1.20;;
23812;SDS011;12087;45.190;5.688;2023-04-15T14:50:45;1.30;;;0.80;;
23812;SDS011;12087;45.190;5.688;2023-04-15T14:56:08;2.05;;;1.15;;
23812;SDS011;12087;45.190;5.688;2023-04-15T15:01:31;1.65;;;0.93;;
23812;SDS011;12087;45.190;5.688;2023-04-15T15:06:53;0.73;;;0.65;;
23812;SDS011;12087;45.190;5.688;2023-04-15T15:12:17;1.45;;;0.90;;
23812;SDS011;12087;45.190;5.688;2023-04-15T15:17:41;4.70;;;2.85;;
23812;SDS011;12087;45.190;5.688;2023-04-15T15:23:03;1.60;;;1.15;;
23812;SDS011;12087;45.190;5.688;2023-04-15T15:28:27;1.33;;;0.93;;
23812;SDS011;12087;45.190;5.688;2023-04-15T15:33:49;1.77;;;0.93;;
23812;SDS011;12087;45.190;5.688;2023-04-15T15:39:12;1.98;;;1.50;;
23812;SDS011;12087;45.190;5.688;2023-04-15T15:44:35;1.00;;;0.80;;
23812;SDS011;12087;45.190;5.688;2023-04-15T15:49:58;1.30;;;1.00;;
23812;SDS011;12087;45.190;5.688;2023-04-15T15:55:21;1.83;;;0.93;;
23812;SDS011;12087;45.190;5.688;2023-04-15T16:00:46;2.17;;;1.10;;
23812;SDS011;12087;45.190;5.688;2023-04-15T16:06:08;3.58;;;1.83;;
23812;SDS011;12087;45.190;5.688;2023-04-15T16:11:30;1.77;;;1.35;;
23812;SDS011;12087;45.190;5.688;2023-04-15T16:16:54;2.05;;;1.40;;
23812;SDS011;12087;45.190;5.688;2023-04-15T16:22:16;2.28;;;1.55;;
23812;SDS011;12087;45.190;5.688;2023-04-15T16:27:39;1.63;;;1.30;;
23812;SDS011;12087;45.190;5.688;2023-04-15T16:33:03;1.20;;;1.00;;
23812;SDS011;12087;45.190;5.688;2023-04-15T16:38:26;2.03;;;1.63;;
23812;SDS011;12087;45.190;5.688;2023-04-15T16:43:48;2.65;;;1.60;;
23812;SDS011;12087;45.190;5.688;2023-04-15T16:49:12;2.13;;;1.20;;
23812;SDS011;12087;45.190;5.688;2023-04-15T16:54:34;1.83;;;1.40;;
23812;SDS011;12087;45.190;5.688;2023-04-15T17:00:00;2.72;;;1.67;;
23812;SDS011;12087;45.190;5.688;2023-04-15T17:05:24;2.03;;;1.48;;
23812;SDS011;12087;45.190;5.688;2023-04-15T17:10:47;1.80;;;1.52;;
23812;SDS011;12087;45.190;5.688;2023-04-15T17:16:10;3.15;;;1.80;;
23812;SDS011;12087;45.190;5.688;2023-04-15T17:21:34;3.08;;;1.75;;
23812;SDS011;12087;45.190;5.688;2023-04-15T17:26:56;4.25;;;2.00;;
23812;SDS011;12087;45.190;5.688;2023-04-15T17:32:18;2.35;;;1.60;;
23812;SDS011;12087;45.190;5.688;2023-04-15T17:37:43;4.30;;;1.55;;
23812;SDS011;12087;45.190;5.688;2023-04-15T17:43:06;1.85;;;1.50;;
23812;SDS011;12087;45.190;5.688;2023-04-15T17:48:28;4.90;;;3.50;;
23812;SDS011;12087;45.190;5.688;2023-04-15T17:53:52;1.75;;;1.30;;
23812;SDS011;12087;45.190;5.688;2023-04-15T17:59:14;5.70;;;2.67;;
23812;SDS011;12087;45.190;5.688;2023-04-15T18:04:36;3.95;;;2.55;;
23812;SDS011;12087;45.190;5.688;2023-04-15T18:10:00;3.72;;;2.50;;
23812;SDS011;12087;45.190;5.688;2023-04-15T18:15:22;2.47;;;1.90;;
23812;SDS011;12087;45.190;5.688;2023-04-15T18:20:44;8.73;;;6.45;;
23812;SDS011;12087;45.190;5.688;2023-04-15T18:26:08;2.75;;;1.38;;
23812;SDS011;12087;45.190;5.688;2023-04-15T18:31:30;3.78;;;1.55;;
23812;SDS011;12087;45.190;5.688;2023-04-15T18:36:53;1.55;;;1.38;;
23812;SDS011;12087;45.190;5.688;2023-04-15T18:42:18;1.70;;;1.50;;
23812;SDS011;12087;45.190;5.688;2023-04-15T18:47:40;2.10;;;1.40;;
23812;SDS011;12087;45.190;5.688;2023-04-15T18:53:03;11.85;;;8.52;;
23812;SDS011;12087;45.190;5.688;2023-04-15T18:58:27;4.30;;;2.92;;
23812;SDS011;12087;45.190;5.688;2023-04-15T19:03:49;3.40;;;2.33;;
23812;SDS011;12087;45.190;5.688;2023-04-15T19:09:11;4.65;;;1.85;;
23812;SDS011;12087;45.190;5.688;2023-04-15T19:14:35;3.08;;;2.20;;
23812;SDS011;12087;45.190;5.688;2023-04-15T19:19:57;2.00;;;1.80;;
23812;SDS011;12087;45.190;5.688;2023-04-15T19:25:19;4.07;;;2.10;;
23812;SDS011;12087;45.190;5.688;2023-04-15T19:30:47;2.60;;;1.80;;
23812;SDS011;12087;45.190;5.688;2023-04-15T19:36:11;2.57;;;2.00;;
23812;SDS011;12087;45.190;5.688;2023-04-15T19:41:33;2.28;;;1.98;;
23812;SDS011;12087;45.190;5.688;2023-04-15T19:46:57;2.75;;;1.90;;
23812;SDS011;12087;45.190;5.688;2023-04-15T19:52:19;3.15;;;2.25;;
23812;SDS011;12087;45.190;5.688;2023-04-15T19:57:42;2.92;;;2.55;;
23812;SDS011;12087;45.190;5.688;2023-04-15T20:03:06;4.30;;;2.42;;
23812;SDS011;12087;45.190;5.688;2023-04-15T20:08:28;4.22;;;2.33;;
23812;SDS011;12087;45.190;5.688;2023-04-15T20:13:50;2.47;;;2.15;;
23812;SDS011;12087;45.190;5.688;2023-04-15T20:19:14;3.53;;;2.00;;
23812;SDS011;12087;45.190;5.688;2023-04-15T20:24:36;3.00;;;1.90;;
23812;SDS011;12087;45.190;5.688;2023-04-15T20:29:58;3.28;;;2.10;;
23812;SDS011;12087;45.190;5.688;2023-04-15T20:35:24;2.53;;;1.88;;
23812;SDS011;12087;45.190;5.688;2023-04-15T20:40:49;5.53;;;2.42;;
23812;SDS011;12087;45.190;5.688;2023-04-15T20:46:12;3.72;;;2.90;;
23812;SDS011;12087;45.190;5.688;2023-04-15T20:51:35;4.65;;;2.65;;
23812;SDS011;12087;45.190;5.688;2023-04-15T20:56:58;2.60;;;2.00;;
23812;SDS011;12087;45.190;5.688;2023-04-15T21:02:20;6.63;;;2.83;;
23812;SDS011;12087;45.190;5.688;2023-04-15T21:07:44;4.82;;;2.97;;
23812;SDS011;12087;45.190;5.688;2023-04-15T21:13:07;4.25;;;2.78;;
23812;SDS011;12087;45.190;5.688;2023-04-15T21:18:31;2.90;;;2.67;;
23812;SDS011;12087;45.190;5.688;2023-04-15T21:23:54;3.35;;;2.53;;
23812;SDS011;12087;45.190;5.688;2023-04-15T21:29:17;2.97;;;2.60;;
23812;SDS011;12087;45.190;5.688;2023-04-15T21:34:39;7.55;;;2.60;;
23812;SDS011;12087;45.190;5.688;2023-04-15T21:40:04;3.05;;;2.75;;
23812;SDS011;12087;45.190;5.688;2023-04-15T21:45:28;4.00;;;2.33;;
23812;SDS011;12087;45.190;5.688;2023-04-15T21:50:50;2.33;;;2.13;;
23812;SDS011;12087;45.190;5.688;2023-04-15T21:56:14;2.45;;;1.95;;
23812;SDS011;12087;45.190;5.688;2023-04-15T22:01:36;1.92;;;1.48;;
23812;SDS011;12087;45.190;5.688;2023-04-15T22:06:58;1.83;;;1.52;;
23812;SDS011;12087;45.190;5.688;2023-04-15T22:12:23;3.35;;;1.98;;
23812;SDS011;12087;45.190;5.688;2023-04-15T22:17:45;3.63;;;1.88;;
23812;SDS011;12087;45.190;5.688;2023-04-15T22:23:07;1.98;;;1.77;;
23812;SDS011;12087;45.190;5.688;2023-04-15T22:28:31;3.33;;;1.73;;
23812;SDS011;12087;45.190;5.688;2023-04-15T22:33:53;2.25;;;1.90;;
23812;SDS011;12087;45.190;5.688;2023-04-15T22:39:15;1.92;;;1.55;;
23812;SDS011;12087;45.190;5.688;2023-04-15T22:44:39;2.00;;;1.80;;
23812;SDS011;12087;45.190;5.688;2023-04-15T22:50:01;3.17;;;2.15;;
23812;SDS011;12087;45.190;5.688;2023-04-15T22:55:23;3.80;;;1.92;;
23812;SDS011;12087;45.190;5.688;2023-04-15T23:00:47;2.80;;;1.80;;
23812;SDS011;12087;45.190;5.688;2023-04-15T23:06:10;2.10;;;1.58;;
23812;SDS011;12087;45.190;5.688;2023-04-15T23:11:32;2.50;;;1.80;;
23812;SDS011;12087;45.190;5.688;2023-04-15T23:16:57;4.20;;;2.00;;
23812;SDS011;12087;45.190;5.688;2023-04-15T23:22:19;2.30;;;2.10;;
23812;SDS011;12087;45.190;5.688;2023-04-15T23:27:41;2.17;;;1.95;;
23812;SDS011;12087;45.190;5.688;2023-04-15T23:33:05;2.30;;;2.00;;
23812;SDS011;12087;45.190;5.688;2023-04-15T23:38:28;4.03;;;2.45;;
23812;SDS011;12087;45.190;5.688;2023-04-15T23:43:50;2.47;;;2.28;;
23812;SDS011;12087;45.190;5.688;2023-04-15T23:49:14;2.75;;;2.53;;
23812;SDS011;12087;45.190;5.688;2023-04-15T23:54:36;3.03;;;2.28;;
23812;SDS011;12087;45.190;5.688;2023-04-15T23:59:58;3.30;;;2.70;;
